Wallops Island, VA

9:24 AM EST on December 26, 2014 (GMT -0500)
Ocean City Municipal | Change Station
CLOSE
Current Station
Airport
Location: Ocean City,
Elevation: 13 ft
Nearby Weather Stations

Elev 13 ft 38.31 °N, 75.12 °W | Updated 31 minutes ago

Clear
Clear
40 °F
Feels Like 37 °F
N
5
Wind Variable Wind from NW

Today
High -- | Low -- °F
--% Chance of Precip.
Yesterday
High -- | Low -- °F
Precip. -- in
7:15 AM 4:49 PM
Waxing Crescent, 26% visible
Pressure 30.34 in
Visibility 10.0 miles
Clouds Clear
Windchill 37 °F
Dew Point 34 °F
Humidity 79%
Rainfall 0.00 in
Snow Depth Not available.
UV 1 out of 12
Pollen .10 out of 12
Air Quality Not available.
Flu Activity Not available.
METAR KOXB 261353Z AUTO 31004KT 10SM CLR 04/01 A3034 RMK AO2 SLP273 T00440011 TSNO

More Conditions Fewer Conditions

Pressure 30.34 in
Visibility 10.0 miles
Clouds Clear
Windchill 37 °F
Dew Point 34 °F
Humidity 79%
Rainfall 0.00 in
Snow Depth Not available.
UV 1 out of 12
Pollen .10 out of 12
Air Quality Not available.
Flu Activity Not available.
METAR KOXB 261353Z AUTO 31004KT 10SM CLR 04/01 A3034 RMK AO2 SLP273 T00440011 TSNO

More Conditions Fewer Conditions

10-Day Weather Forecast

Almanac

Astronomy

Dec. 26, 2014 Rise Set
Actual Time
Civil Twilight
Nautical Twilight
Astronomical Twilight
Moon
Length of Visible Light
Length of Day
Tomorrow will be .
, % of the Moon is Illuminated

Today's Extremes

State Highs State Lows

Community

WunderPhotos

Upload Photos

1,780,597 photos uploaded!

WunderBlogs® & News

Nearby

Air Quality

  Air Quality AQ Index Pollutant
Not available.

Snow Depth

Station Depth Elevation

Earthquake Activity

City Distance Mag. Time & Date
Minimum magnitude displayed is 2.5.

Coastal Water Temperatures

Place Temperature

Nearby Weather Stations